Huntington, WV

2:27 PM EST on February 17, 2018 (GMT -0500)
Southside | | Change Station
Active Advisory: Flood Warning

Elev 558 ft 38.41 °N, 82.44 °W | Updated 9 seconds ago

Rain
Rain
37.8 °F
Feels Like 38 °F
N
0.0
Wind Variable Wind from West

Today
High -- | Low -- °F
--% Chance of Precip.
Yesterday
High -- | Low -- °F
Precip. -- in
Pressure 30.04 in
Visibility 1.0 miles
Clouds Overcast 3400 ft
Windchill 38 °F
Dew Point 36 °F
Humidity 93%
Rainfall 0.35 in
Snow Depth Not available.
7:17 AM 6:10 PM
Waxing Crescent, 4% visible
METAR KHTS 171851Z 12003KT 1SM RA BR OVC034 02/01 A3003 RMK AO2 SLP172 P0009 T00220011
Pressure 30.04 in
Visibility 1.0 miles
Clouds Overcast 3400 ft
Windchill 38 °F
Dew Point 36 °F
Humidity 93%
Rainfall 0.35 in
Snow Depth Not available.
7:17 AM 6:10 PM
Waxing Crescent, 4% visible
METAR KHTS 171851Z 12003KT 1SM RA BR OVC034 02/01 A3003 RMK AO2 SLP172 P0009 T00220011

Get Your Daily Forecast Email!

Thanks for signing up!

Be on the lookout for a verification email in your inbox.

You'll start receiving severe weather alerts in your inbox..

×

10-Day Weather Forecast

Almanac

Astronomy

Feb. 17, 2018 Rise Set
Actual Time
Civil Twilight
Nautical Twilight
Astronomical Twilight
Moon
Length of Visible Light
Length of Day
Tomorrow will be .
, % of the Moon is Illuminated

Today's Extremes

State Highs State Lows

Community

WunderPhotos

Category 6

Welcome to Category 6. This is the collective home for Weather Underground's featured writeups by Dr. Jeff Masters (right), Bob Henson (left), Chris Burt, and other regular contributors.

Nearby

Air Quality

  Air Quality AQ Index Pollutant
Not available.

Snow Depth

Station Depth Elevation

Earthquake Activity

City Distance Mag. Time & Date
Minimum magnitude displayed is 2.5.

Coastal Water Temperatures

Place Temperature

Stations

Nearby Weather Stations

Station Location Temp. Windchill Dew Point Humidity Wind Precip. Elev Updated Type
                   

Watches & Warnings

Flood Warning
Issued: 11:22 AM EST Feb. 17, 2018 – National Weather Service

The Flood Warning continues for
the Ohio River at Huntington.
* At 11:00 am Saturday the stage was 45.9 feet.
* Minor flooding is forecast.
* Flood stage is 50.0 feet.
* Forecast... rise above flood stage by late morning Sunday and continue to rise
to near 52.0 feet by early afternoon Monday . The river will fall below flood
stage by Tuesday evening.
* At stages near 52.0 feet... Route 60 east above the Roby Road bridge and
Riverside Drive is flooded.
* A crest near 52.0 feet compares to a previous crest of 51.5 feet on March 7
2015.


Lat... Lon 3848 8235 3846 8221 3834 8254 3843 8265